Back to Top

Language: 

My Weather Underground Personal Weather Station Historical Data with Graphs...

Delerius Weather Station Historical Data
Daily Summary for January 5, 2018 Units:  Metric    English   Both
« Previous Day
Next Day »
Daily Weekly Monthly Yearly Custom
  High: Low: Average:
Temperature: 5.3 °C 1.2 °C 3.5 °C
Dew Point: 3.8 °C 0.2 °C 2.3 °C
Humidity: 96 % 88 % 92 %
Wind Speed: 12.9 km/h 0 km/h 3.5 km/h
Wind Gust: 22.5 km/h - -
Wind:- - West
Pressure: 1000.2 hPa 989.4 hPa -
Precipitation: 0 mm    
Historical Graphs
 
 
Tabular Data for January 5, 2018
Time Temperature Dew Point Pressure Wind Wind Speed Wind Gust Humidity Rainfall Rate (Hourly) solar Conditions
00:01 4.8 °C 3 °C 990.4 hPa West 11.3 km/h 16.1 km/h 88 % 0 mm 0 W/m2
00:06 4.8 °C 3 °C 990.4 hPa West 9.7 km/h 16.1 km/h 88 % 0 mm 0 W/m2
00:11 4.7 °C 2.9 °C 990.4 hPa West 9.7 km/h 14.5 km/h 88 % 0 mm 0 W/m2
00:16 4.6 °C 2.8 °C 990.4 hPa West 11.3 km/h 16.1 km/h 88 % 0 mm 0 W/m2
00:19 4.6 °C 2.8 °C 990.4 hPa West 12.9 km/h 20.9 km/h 88 % 0 mm 0 W/m2
00:24 4.5 °C 2.7 °C 990.4 hPa West 12.9 km/h 19.3 km/h 88 % 0 mm 0 W/m2
00:29 4.5 °C 2.7 °C 990.4 hPa West 11.3 km/h 16.1 km/h 88 % 0 mm 0 W/m2
00:31 4.5 °C 2.7 °C 990.4 hPa West 9.7 km/h 14.5 km/h 88 % 0 mm 0 W/m2
00:37 4.4 °C 2.6 °C 990.4 hPa West 6.4 km/h 11.3 km/h 88 % 0 mm 0 W/m2
00:38 4.4 °C 2.6 °C 990.4 hPa West 8 km/h 14.5 km/h 88 % 0 mm 0 W/m2
00:43 4.3 °C 2.5 °C 990.4 hPa West 12.9 km/h 17.7 km/h 88 % 0 mm 0 W/m2
00:44 4.3 °C 2.5 °C 990.4 hPa West 12.9 km/h 22.5 km/h 88 % 0 mm 0 W/m2
00:48 4.3 °C 2.5 °C 990.4 hPa West 6.4 km/h 12.9 km/h 88 % 0 mm 0 W/m2
00:50 4.3 °C 2.5 °C 990.4 hPa West 6.4 km/h 12.9 km/h 88 % 0 mm 0 W/m2
00:53 4.2 °C 2.4 °C 990.4 hPa West 9.7 km/h 12.9 km/h 88 % 0 mm 0 W/m2
00:58 4.1 °C 2.3 °C 990.1 hPa West 11.3 km/h 16.1 km/h 88 % 0 mm 0 W/m2
01:03 4.1 °C 2.3 °C 990.1 hPa WSW 12.9 km/h 17.7 km/h 88 % 0 mm 0 W/m2
01:08 4.1 °C 2.3 °C 990.1 hPa West 11.3 km/h 20.9 km/h 88 % 0 mm 0 W/m2
01:11 4.1 °C 2.3 °C 990.1 hPa West 11.3 km/h 16.1 km/h 88 % 0 mm 0 W/m2
01:17 4.1 °C 2.3 °C 990.1 hPa West 11.3 km/h 17.7 km/h 88 % 0 mm 0 W/m2
01:21 4 °C 2.2 °C 990.1 hPa WNW 9.7 km/h 14.5 km/h 88 % 0 mm 0 W/m2
01:27 3.9 °C 2.3 °C 990.1 hPa West 9.7 km/h 12.9 km/h 89 % 0 mm 0 W/m2
01:30 3.9 °C 2.3 °C 990.4 hPa West 9.7 km/h 14.5 km/h 89 % 0 mm 0 W/m2
01:35 3.8 °C 2.2 °C 990.1 hPa West 9.7 km/h 14.5 km/h 89 % 0 mm 0 W/m2
01:38 3.8 °C 2.2 °C 990.1 hPa West 11.3 km/h 17.7 km/h 89 % 0 mm 0 W/m2
01:43 3.8 °C 2.2 °C 990.1 hPa West 8 km/h 12.9 km/h 89 % 0 mm 0 W/m2
01:48 3.8 °C 2.2 °C 990.1 hPa WNW 9.7 km/h 12.9 km/h 89 % 0 mm 0 W/m2
01:49 3.8 °C 2.2 °C 990.1 hPa WNW 9.7 km/h 12.9 km/h 89 % 0 mm 0 W/m2
01:51 3.8 °C 2.2 °C 990.1 hPa West 11.3 km/h 12.9 km/h 89 % 0 mm 0 W/m2
01:56 3.8 °C 2.2 °C 990.1 hPa WNW 9.7 km/h 12.9 km/h 89 % 0 mm 0 W/m2
01:57 3.8 °C 2.2 °C 990.1 hPa WNW 11.3 km/h 12.9 km/h 89 % 0 mm 0 W/m2
02:02 3.8 °C 2.3 °C 990.1 hPa WNW 11.3 km/h 16.1 km/h 90 % 0 mm 0 W/m2
02:04 3.8 °C 2.3 °C 990.1 hPa WNW 12.9 km/h 17.7 km/h 90 % 0 mm 0 W/m2
02:09 3.8 °C 2.3 °C 990.1 hPa WNW 9.7 km/h 12.9 km/h 90 % 0 mm 0 W/m2
02:10 3.8 °C 2.3 °C 990.1 hPa WNW 9.7 km/h 14.5 km/h 90 % 0 mm 0 W/m2
02:15 3.8 °C 2.3 °C 990.1 hPa WNW 9.7 km/h 14.5 km/h 90 % 0 mm 0 W/m2
02:19 3.8 °C 2.3 °C 990.1 hPa West 9.7 km/h 14.5 km/h 90 % 0 mm 0 W/m2
02:21 3.9 °C 2.4 °C 990.1 hPa West 11.3 km/h 16.1 km/h 90 % 0 mm 0 W/m2
02:25 3.9 °C 2.4 °C 990.1 hPa West 11.3 km/h 16.1 km/h 90 % 0 mm 0 W/m2
02:30 4 °C 2.5 °C 989.7 hPa West 11.3 km/h 14.5 km/h 90 % 0 mm 0 W/m2
02:32 4 °C 2.5 °C 989.7 hPa West 11.3 km/h 14.5 km/h 90 % 0 mm 0 W/m2
02:37 4 °C 2.5 °C 989.7 hPa West 12.9 km/h 16.1 km/h 90 % 0 mm 0 W/m2
02:41 4.1 °C 2.6 °C 989.7 hPa West 12.9 km/h 16.1 km/h 90 % 0 mm 0 W/m2
02:46 4.1 °C 2.6 °C 989.7 hPa WNW 9.7 km/h 14.5 km/h 90 % 0 mm 0 W/m2
02:52 4.1 °C 2.6 °C 989.7 hPa WNW 9.7 km/h 16.1 km/h 90 % 0 mm 0 W/m2
02:57 4.1 °C 2.6 °C 989.7 hPa WNW 8 km/h 14.5 km/h 90 % 0 mm 0 W/m2
03:03 4.2 °C 2.7 °C 989.7 hPa WNW 3.2 km/h 11.3 km/h 90 % 0 mm 0 W/m2
03:07 4.2 °C 2.7 °C 989.7 hPa WNW 1.6 km/h 6.4 km/h 90 % 0 mm 0 W/m2
03:12 4.1 °C 2.4 °C 990.1 hPa Calm     89 % 0 mm 0 W/m2
03:16 4.1 °C 2.6 °C 990.1 hPa Calm     90 % 0 mm 0 W/m2
03:21 4.1 °C 2.4 °C 990.1 hPa Calm     89 % 0 mm 0 W/m2
03:23 4.1 °C 2.4 °C 990.1 hPa Calm     89 % 0 mm 0 W/m2
03:28 3.9 °C 2.3 °C 989.7 hPa Calm     89 % 0 mm 0 W/m2
03:29 3.9 °C 2.3 °C 989.7 hPa Calm     89 % 0 mm 0 W/m2
03:34 3.9 °C 2.4 °C 989.7 hPa WNW 1.6 km/h 8 km/h 90 % 0 mm 0 W/m2
03:35 3.9 °C 2.4 °C 989.7 hPa WNW 1.6 km/h 8 km/h 90 % 0 mm 0 W/m2
03:40 3.8 °C 2.3 °C 989.7 hPa WNW 3.2 km/h 8 km/h 90 % 0 mm 0 W/m2
03:45 3.8 °C 2.3 °C 989.7 hPa West 3.2 km/h 11.3 km/h 90 % 0 mm 0 W/m2
03:46 3.9 °C 2.4 °C 989.7 hPa West 4.8 km/h 11.3 km/h 90 % 0 mm 0 W/m2
03:52 3.9 °C 2.6 °C 989.7 hPa West 3.2 km/h 8 km/h 91 % 0 mm 0 W/m2
03:57 3.9 °C 2.4 °C 989.7 hPa Calm   8 km/h 90 % 0 mm 0 W/m2
04:02 3.9 °C 2.4 °C 989.7 hPa Calm   3.2 km/h 90 % 0 mm 0 W/m2
04:04 3.9 °C 2.4 °C 989.7 hPa Calm   1.6 km/h 90 % 0 mm 0 W/m2
04:05 3.9 °C 2.4 °C 989.7 hPa Calm   1.6 km/h 90 % 0 mm 0 W/m2
04:10 3.9 °C 2.4 °C 989.7 hPa Calm   1.6 km/h 90 % 0 mm 0 W/m2
04:14 3.9 °C 2.4 °C 989.7 hPa Calm     90 % 0 mm 0 W/m2
04:15 3.9 °C 2.4 °C 989.7 hPa Calm     90 % 0 mm 0 W/m2
04:20 3.8 °C 2.3 °C 989.7 hPa West 1.6 km/h 4.8 km/h 90 % 0 mm 0 W/m2
04:25 3.8 °C 2.4 °C 989.4 hPa West 1.6 km/h 4.8 km/h 91 % 0 mm 0 W/m2
04:27 3.8 °C 2.4 °C 989.4 hPa West 1.6 km/h 6.4 km/h 91 % 0 mm 0 W/m2
04:32 3.8 °C 2.4 °C 989.4 hPa West 4.8 km/h 8 km/h 91 % 0 mm 0 W/m2
04:33 3.8 °C 2.4 °C 989.4 hPa West 4.8 km/h 8 km/h 91 % 0 mm 0 W/m2
04:38 3.8 °C 2.4 °C 989.4 hPa WSW 4.8 km/h 9.7 km/h 91 % 0 mm 0 W/m2
04:43 3.8 °C 2.3 °C 989.4 hPa WSW 1.6 km/h 6.4 km/h 90 % 0 mm 0 W/m2
04:48 3.8 °C 2.3 °C 989.4 hPa Calm   6.4 km/h 90 % 0 mm 0 W/m2
04:53 3.8 °C 2.3 °C 989.4 hPa Calm   3.2 km/h 90 % 0 mm 0 W/m2
04:54 3.8 °C 2.3 °C 989.4 hPa Calm   1.6 km/h 90 % 0 mm 0 W/m2
04:59 3.7 °C 2.2 °C 989.4 hPa Calm     90 % 0 mm 0 W/m2
05:00 3.7 °C 2.2 °C 989.4 hPa Calm   1.6 km/h 90 % 0 mm 0 W/m2
05:05 3.7 °C 2.2 °C 989.4 hPa Calm     90 % 0 mm 0 W/m2
05:10 3.7 °C 2.2 °C 989.4 hPa WSW 1.6 km/h 3.2 km/h 90 % 0 mm 0 W/m2
05:15 3.6 °C 2.3 °C 989.4 hPa South 3.2 km/h 8 km/h 91 % 0 mm 0 W/m2
05:16 3.6 °C 2.3 °C 989.4 hPa SSE 3.2 km/h 8 km/h 91 % 0 mm 0 W/m2
05:21 3.6 °C 2.3 °C 989.4 hPa SSE 1.6 km/h 6.4 km/h 91 % 0 mm 0 W/m2
05:23 3.7 °C 2.4 °C 989.4 hPa South 1.6 km/h 6.4 km/h 91 % 0 mm 0 W/m2
05:26 3.7 °C 2.4 °C 989.4 hPa SSW 4.8 km/h 9.7 km/h 91 % 0 mm 0 W/m2
05:31 3.7 °C 2.4 °C 989.4 hPa Calm   3.2 km/h 91 % 0 mm 0 W/m2
05:34 3.7 °C 2.4 °C 989.4 hPa Calm   3.2 km/h 91 % 0 mm 0 W/m2
05:39 3.7 °C 2.4 °C 989.4 hPa SW 1.6 km/h 6.4 km/h 91 % 0 mm 0 W/m2
05:44 3.7 °C 2.4 °C 989.7 hPa SW 1.6 km/h 8 km/h 91 % 0 mm 0 W/m2
05:45 3.7 °C 2.4 °C 989.7 hPa SSW 1.6 km/h 8 km/h 91 % 0 mm 0 W/m2
05:50 3.7 °C 2.4 °C 989.7 hPa South 6.4 km/h 9.7 km/h 91 % 0 mm 0 W/m2
05:55 3.9 °C 2.6 °C 989.7 hPa SSW 11.3 km/h 17.7 km/h 91 % 0 mm 0 W/m2
06:00 4 °C 2.7 °C 989.7 hPa SSW 9.7 km/h 16.1 km/h 91 % 0 mm 0 W/m2
06:05 4.1 °C 2.8 °C 989.7 hPa SSW 8 km/h 11.3 km/h 91 % 0 mm 0 W/m2
06:06 4.1 °C 2.8 °C 989.4 hPa SSW 8 km/h 11.3 km/h 91 % 0 mm 0 W/m2
06:11 4.1 °C 2.6 °C 989.4 hPa SSW 6.4 km/h 9.7 km/h 90 % 0 mm 0 W/m2
06:13 4.1 °C 2.6 °C 989.7 hPa SSW 4.8 km/h 9.7 km/h 90 % 0 mm 0 W/m2
06:18 4.1 °C 2.6 °C 989.4 hPa SW 8 km/h 12.9 km/h 90 % 0 mm 0 W/m2
06:23 4 °C 2.5 °C 989.4 hPa WSW 4.8 km/h 8 km/h 90 % 0 mm 0 W/m2
06:28 4 °C 2.5 °C 989.4 hPa WSW 1.6 km/h 4.8 km/h 90 % 0 mm 0 W/m2
06:29 4 °C 2.5 °C 989.4 hPa WSW 1.6 km/h 8 km/h 90 % 0 mm 0 W/m2
06:34 3.9 °C 2.4 °C 989.4 hPa SW 1.6 km/h 6.4 km/h 90 % 0 mm 0 W/m2
06:40 3.9 °C 2.4 °C 989.4 hPa Calm     90 % 0 mm 0 W/m2
06:42 3.8 °C 2.3 °C 989.4 hPa Calm   1.6 km/h 90 % 0 mm 0 W/m2
06:47 3.7 °C 2.2 °C 989.4 hPa Calm     90 % 0 mm 0 W/m2
06:50 3.7 °C 2.2 °C 989.4 hPa Calm     90 % 0 mm 0 W/m2
06:55 3.6 °C 2.1 °C 989.4 hPa Calm     90 % 0 mm 0 W/m2
07:01 3.4 °C 2.1 °C 989.4 hPa Calm   3.2 km/h 91 % 0 mm 0 W/m2
07:04 3.4 °C 2.1 °C 989.4 hPa SSE 1.6 km/h 3.2 km/h 91 % 0 mm 0 W/m2
07:09 3.4 °C 2.1 °C 989.4 hPa Calm   3.2 km/h 91 % 0 mm 0 W/m2
07:11 3.4 °C 2.1 °C 989.7 hPa Calm   3.2 km/h 91 % 0 mm 0 W/m2
07:17 3.3 °C 1.9 °C 989.7 hPa Calm   3.2 km/h 91 % 0 mm 0 W/m2
07:20 3.3 °C 1.9 °C 989.7 hPa Calm   1.6 km/h 91 % 0 mm 0 W/m2
07:21 3.3 °C 1.9 °C 989.7 hPa Calm   3.2 km/h 91 % 0 mm 0 W/m2
07:26 3.3 °C 1.9 °C 989.7 hPa Calm   1.6 km/h 91 % 0 mm 0 W/m2
07:31 3.3 °C 1.9 °C 989.7 hPa SSE 1.6 km/h 3.2 km/h 91 % 0 mm 0 W/m2
07:36 3.3 °C 2.1 °C 989.7 hPa Calm   3.2 km/h 92 % 0 mm 0 W/m2
07:41 3.3 °C 2.1 °C 989.7 hPa Calm     92 % 0 mm 0 W/m2
07:43 3.3 °C 2.1 °C 989.7 hPa Calm     92 % 0 mm 0 W/m2
07:48 3.3 °C 2.1 °C 989.7 hPa Calm     92 % 0 mm 0 W/m2
07:49 3.3 °C 2.1 °C 989.7 hPa Calm   1.6 km/h 92 % 0 mm 0 W/m2
07:54 3.3 °C 2.1 °C 989.7 hPa Calm   3.2 km/h 92 % 0 mm 0 W/m2
07:57 3.3 °C 2.1 °C 989.7 hPa Calm     92 % 0 mm 0 W/m2
08:02 3.2 °C 2 °C 989.7 hPa Calm     92 % 0 mm 0 W/m2
08:03 3.2 °C 2 °C 989.7 hPa Calm     92 % 0 mm 0 W/m2
08:05 3.2 °C 2 °C 989.7 hPa Calm   1.6 km/h 92 % 0 mm 0 W/m2
08:10 3.2 °C 2 °C 989.7 hPa Calm     92 % 0 mm 0 W/m2
08:12 3.2 °C 2 °C 989.7 hPa Calm     92 % 0 mm 0 W/m2
08:17 3.2 °C 2 °C 989.7 hPa Calm     92 % 0 mm 0 W/m2
08:20 3.2 °C 2 °C 989.7 hPa Calm     92 % 0 mm 0 W/m2
08:25 3.2 °C 2 °C 989.7 hPa Calm     92 % 0 mm 0 W/m2
08:26 3.2 °C 2 °C 989.7 hPa Calm   3.2 km/h 92 % 0 mm 0 W/m2
08:31 3.2 °C 2 °C 989.7 hPa Calm   1.6 km/h 92 % 0 mm 5 W/m2
08:32 3.2 °C 2 °C 989.7 hPa Calm   1.6 km/h 92 % 0 mm 5 W/m2
08:37 3.2 °C 2 °C 989.4 hPa Calm   1.6 km/h 92 % 0 mm 9 W/m2
08:40 3.2 °C 2 °C 989.4 hPa SE 1.6 km/h 3.2 km/h 92 % 0 mm 11 W/m2
08:45 3.3 °C 2.1 °C 989.4 hPa Calm   1.6 km/h 92 % 0 mm 14 W/m2
08:47 3.3 °C 2.1 °C 989.4 hPa Calm   1.6 km/h 92 % 0 mm 14 W/m2
08:52 3.3 °C 2.3 °C 989.4 hPa ESE 1.6 km/h 6.4 km/h 93 % 0 mm 12 W/m2
08:55 3.3 °C 2.3 °C 989.4 hPa Calm   3.2 km/h 93 % 0 mm 14 W/m2
09:01 3.3 °C 2.3 °C 989.4 hPa Calm   3.2 km/h 93 % 0 mm 16 W/m2
09:02 3.4 °C 2.4 °C 989.4 hPa Calm     93 % 0 mm 16 W/m2
09:05 3.3 °C 2.3 °C 989.4 hPa Calm     93 % 0 mm 14 W/m2
09:07 3.3 °C 2.3 °C 989.4 hPa Calm     93 % 0 mm 14 W/m2
09:12 3.3 °C 2.3 °C 989.4 hPa Calm     93 % 0 mm 12 W/m2
09:13 3.4 °C 2.4 °C 989.4 hPa Calm     93 % 0 mm 14 W/m2
09:19 3.4 °C 2.4 °C 989.4 hPa ESE 3.2 km/h 4.8 km/h 93 % 0 mm 18 W/m2
09:24 3.4 °C 2.4 °C 989.4 hPa ESE 1.6 km/h 3.2 km/h 93 % 0 mm 25 W/m2
09:28 3.4 °C 2.4 °C 989.7 hPa Calm     93 % 0 mm 28 W/m2
09:29 3.4 °C 2.4 °C 989.7 hPa Calm     93 % 0 mm 28 W/m2
09:34 3.4 °C 2.4 °C 989.4 hPa Calm     93 % 0 mm 35 W/m2
09:35 3.4 °C 2.4 °C 989.4 hPa Calm     93 % 0 mm 40 W/m2
09:41 3.5 °C 2.5 °C 989.4 hPa Calm   1.6 km/h 93 % 0 mm 42 W/m2
09:46 3.6 °C 2.6 °C 989.4 hPa Calm     93 % 0 mm 37 W/m2
09:50 3.6 °C 2.6 °C 989.4 hPa Calm     93 % 0 mm 32 W/m2
09:51 3.6 °C 2.6 °C 989.4 hPa Calm     93 % 0 mm 32 W/m2
09:56 3.6 °C 2.6 °C 989.4 hPa Calm     93 % 0 mm 30 W/m2
09:57 3.6 °C 2.6 °C 989.4 hPa Calm     93 % 0 mm 30 W/m2
09:59 3.6 °C 2.6 °C 989.4 hPa Calm     93 % 0 mm 32 W/m2
10:04 3.6 °C 2.7 °C 989.4 hPa Calm   1.6 km/h 94 % 0 mm 33 W/m2
10:05 3.7 °C 2.8 °C 989.4 hPa Calm   1.6 km/h 94 % 0 mm 33 W/m2
10:11 3.7 °C 2.8 °C 989.4 hPa Calm     94 % 0 mm 33 W/m2
10:13 3.7 °C 2.8 °C 989.4 hPa Calm     94 % 0 mm 33 W/m2
10:17 3.7 °C 2.8 °C 989.4 hPa Calm     94 % 0 mm 35 W/m2
10:20 3.7 °C 2.8 °C 989.4 hPa Calm     94 % 0 mm 32 W/m2
10:23 3.8 °C 2.9 °C 989.4 hPa Calm     94 % 0 mm 28 W/m2
10:28 3.8 °C 2.9 °C 989.4 hPa Calm     94 % 0 mm 23 W/m2
10:34 3.8 °C 2.9 °C 989.7 hPa Calm     94 % 0 mm 25 W/m2
10:36 3.8 °C 2.9 °C 989.7 hPa Calm     94 % 0 mm 26 W/m2
10:41 3.8 °C 2.9 °C 989.7 hPa Calm     94 % 0 mm 33 W/m2
10:46 3.8 °C 2.9 °C 989.7 hPa Calm     94 % 0 mm 39 W/m2
10:50 3.8 °C 2.9 °C 989.7 hPa Calm     94 % 0 mm 40 W/m2
10:53 3.9 °C 3 °C 989.7 hPa NNE 3.2 km/h 8 km/h 94 % 0 mm 42 W/m2
10:55 3.9 °C 3 °C 989.7 hPa NNE 3.2 km/h 9.7 km/h 94 % 0 mm 44 W/m2
10:59 3.9 °C 3 °C 989.7 hPa North 1.6 km/h 8 km/h 94 % 0 mm 46 W/m2
11:00 3.9 °C 3 °C 989.7 hPa North 3.2 km/h 9.7 km/h 94 % 0 mm 46 W/m2
11:05 3.9 °C 2.9 °C 989.7 hPa NE 1.6 km/h 6.4 km/h 93 % 0 mm 46 W/m2
11:11 4 °C 3.1 °C 989.7 hPa North 3.2 km/h 8 km/h 94 % 0 mm 40 W/m2
11:14 4 °C 3.1 °C 989.7 hPa NNE 3.2 km/h 11.3 km/h 94 % 0 mm 33 W/m2
11:19 4 °C 3.1 °C 989.7 hPa NNE 3.2 km/h 9.7 km/h 94 % 0 mm 28 W/m2
11:24 4 °C 3.1 °C 989.7 hPa Calm   1.6 km/h 94 % 0 mm 33 W/m2
11:30 4 °C 3.1 °C 989.4 hPa Calm   1.6 km/h 94 % 0 mm 44 W/m2
11:35 4 °C 3.1 °C 989.7 hPa NNE 1.6 km/h 3.2 km/h 94 % 0 mm 58 W/m2
11:37 4.1 °C 3.2 °C 989.4 hPa NE 1.6 km/h 4.8 km/h 94 % 0 mm 65 W/m2
11:38 4.1 °C 3.2 °C 989.4 hPa NE 1.6 km/h 4.8 km/h 94 % 0 mm 67 W/m2
11:43 4.1 °C 3.2 °C 989.4 hPa NE 1.6 km/h 6.4 km/h 94 % 0 mm 67 W/m2
11:47 4.1 °C 3.2 °C 989.4 hPa NE 1.6 km/h 4.8 km/h 94 % 0 mm 67 W/m2
11:52 4.2 °C 3.3 °C 989.4 hPa NE 1.6 km/h 3.2 km/h 94 % 0 mm 77 W/m2
11:55 4.2 °C 3.3 °C 989.4 hPa Calm     94 % 0 mm 81 W/m2
12:00 4.2 °C 3.3 °C 989.4 hPa Calm   3.2 km/h 94 % 0 mm 72 W/m2
12:06 4.3 °C 3.4 °C 989.4 hPa NE 1.6 km/h 8 km/h 94 % 0 mm 76 W/m2
12:07 4.3 °C 3.4 °C 989.4 hPa NE 1.6 km/h 8 km/h 94 % 0 mm 77 W/m2
12:12 4.3 °C 3.4 °C 989.7 hPa NE 3.2 km/h 8 km/h 94 % 0 mm 81 W/m2
12:16 4.3 °C 3.4 °C 989.7 hPa NE 3.2 km/h 8 km/h 94 % 0 mm 77 W/m2
12:21 4.3 °C 3.4 °C 989.7 hPa ENE 1.6 km/h 8 km/h 94 % 0 mm 83 W/m2
12:26 4.3 °C 3.4 °C 989.7 hPa Calm   3.2 km/h 94 % 0 mm 77 W/m2
12:31 4.4 °C 3.5 °C 989.7 hPa North 1.6 km/h 6.4 km/h 94 % 0 mm 54 W/m2
12:33 4.4 °C 3.5 °C 989.7 hPa NNE 3.2 km/h 6.4 km/h 94 % 0 mm 60 W/m2
12:38 4.4 °C 3.5 °C 989.7 hPa North 1.6 km/h 8 km/h 94 % 0 mm 77 W/m2
12:40 4.4 °C 3.5 °C 989.7 hPa Calm   4.8 km/h 94 % 0 mm 76 W/m2
12:45 4.5 °C 3.6 °C 989.7 hPa NE 3.2 km/h 8 km/h 94 % 0 mm 63 W/m2
12:47 4.5 °C 3.6 °C 989.7 hPa North 1.6 km/h 9.7 km/h 94 % 0 mm 47 W/m2
12:52 4.6 °C 3.7 °C 990.1 hPa NNW 9.7 km/h 12.9 km/h 94 % 0 mm 46 W/m2
12:54 4.6 °C 3.7 °C 990.1 hPa North 8 km/h 12.9 km/h 94 % 0 mm 63 W/m2
12:59 4.6 °C 3.7 °C 990.1 hPa NNW 9.7 km/h 12.9 km/h 94 % 0 mm 81 W/m2
13:04 4.5 °C 3.4 °C 990.1 hPa NNW 4.8 km/h 12.9 km/h 93 % 0 mm 74 W/m2
13:09 4.4 °C 3.4 °C 990.1 hPa NNW 8 km/h 14.5 km/h 93 % 0 mm 84 W/m2
13:12 4.4 °C 3.4 °C 990.1 hPa NNW 8 km/h 14.5 km/h 93 % 0 mm 84 W/m2
13:17 4.4 °C 3.4 °C 990.1 hPa North 4.8 km/h 11.3 km/h 93 % 0 mm 84 W/m2
13:22 4.4 °C 3.4 °C 990.4 hPa North 3.2 km/h 6.4 km/h 93 % 0 mm 77 W/m2
13:25 4.5 °C 3.4 °C 990.4 hPa North 6.4 km/h 12.9 km/h 93 % 0 mm 70 W/m2
13:30 4.5 °C 3.4 °C 990.4 hPa NNW 4.8 km/h 9.7 km/h 93 % 0 mm 67 W/m2
13:31 4.5 °C 3.4 °C 990.4 hPa NNW 4.8 km/h 9.7 km/h 93 % 0 mm 67 W/m2
13:36 4.6 °C 3.6 °C 990.4 hPa NNW 6.4 km/h 12.9 km/h 93 % 0 mm 62 W/m2
13:37 4.6 °C 3.6 °C 990.4 hPa NNW 6.4 km/h 14.5 km/h 93 % 0 mm 62 W/m2
13:42 4.6 °C 3.6 °C 990.7 hPa NNW 4.8 km/h 11.3 km/h 93 % 0 mm 54 W/m2
13:44 4.6 °C 3.6 °C 990.7 hPa NNW 3.2 km/h 9.7 km/h 93 % 0 mm 54 W/m2
13:47 4.6 °C 3.6 °C 990.7 hPa NNW 6.4 km/h 12.9 km/h 93 % 0 mm 63 W/m2
13:52 4.7 °C 3.7 °C 990.7 hPa NNW 6.4 km/h 12.9 km/h 93 % 0 mm 88 W/m2
13:58 4.7 °C 3.5 °C 990.7 hPa NNW 6.4 km/h 9.7 km/h 92 % 0 mm 146 W/m2
14:03 4.8 °C 3.6 °C 990.7 hPa NW 3.2 km/h 11.3 km/h 92 % 0 mm 98 W/m2
14:04 4.8 °C 3.6 °C 990.7 hPa NNW 3.2 km/h 9.7 km/h 92 % 0 mm 95 W/m2
14:09 4.9 °C 3.6 °C 990.7 hPa NW 4.8 km/h 11.3 km/h 91 % 0 mm 95 W/m2
14:13 4.9 °C 3.6 °C 991.1 hPa NW 6.4 km/h 9.7 km/h 91 % 0 mm 98 W/m2
14:14 4.9 °C 3.6 °C 991.1 hPa NW 4.8 km/h 11.3 km/h 91 % 0 mm 95 W/m2
14:19 5 °C 3.7 °C 991.1 hPa NW 8 km/h 17.7 km/h 91 % 0 mm 86 W/m2
14:20 5 °C 3.7 °C 991.1 hPa NW 9.7 km/h 17.7 km/h 91 % 0 mm 86 W/m2
14:22 5 °C 3.5 °C 991.1 hPa NW 8 km/h 16.1 km/h 90 % 0 mm 81 W/m2
14:27 5 °C 3.7 °C 991.1 hPa NW 6.4 km/h 9.7 km/h 91 % 0 mm 69 W/m2
14:33 5.1 °C 3.8 °C 991.4 hPa NW 3.2 km/h 9.7 km/h 91 % 0 mm 65 W/m2
14:38 5.1 °C 3.8 °C 991.4 hPa NW 3.2 km/h 9.7 km/h 91 % 0 mm 67 W/m2
14:39 5.1 °C 3.8 °C 991.4 hPa NW 3.2 km/h 9.7 km/h 91 % 0 mm 67 W/m2
14:45 5.1 °C 3.8 °C 991.4 hPa NW 4.8 km/h 9.7 km/h 91 % 0 mm 77 W/m2
14:46 5.1 °C 3.8 °C 991.4 hPa NW 3.2 km/h 9.7 km/h 91 % 0 mm 70 W/m2
14:51 5.1 °C 3.8 °C 991.4 hPa NW 4.8 km/h 11.3 km/h 91 % 0 mm 67 W/m2
14:56 5.2 °C 3.8 °C 991.4 hPa NW 4.8 km/h 8 km/h 91 % 0 mm 56 W/m2
14:58 5.1 °C 3.8 °C 991.4 hPa NW 3.2 km/h 9.7 km/h 91 % 0 mm 54 W/m2
15:03 5.2 °C 3.8 °C 991.8 hPa NW 4.8 km/h 9.7 km/h 91 % 0 mm 44 W/m2
15:07 5.2 °C 3.8 °C 991.8 hPa WNW 4.8 km/h 9.7 km/h 91 % 0 mm 35 W/m2
15:12 5.2 °C 3.7 °C 991.8 hPa WNW 4.8 km/h 9.7 km/h 90 % 0 mm 23 W/m2
15:17 5.2 °C 3.8 °C 991.8 hPa WNW 6.4 km/h 9.7 km/h 91 % 0 mm 21 W/m2
15:18 5.2 °C 3.8 °C 991.8 hPa WNW 4.8 km/h 9.7 km/h 91 % 0 mm 21 W/m2
15:23 5.2 °C 3.8 °C 992.1 hPa WNW 4.8 km/h 9.7 km/h 91 % 0 mm 19 W/m2
15:24 5.2 °C 3.8 °C 992.1 hPa WNW 4.8 km/h 9.7 km/h 91 % 0 mm 19 W/m2
15:29 5.3 °C 3.8 °C 992.1 hPa NW 3.2 km/h 8 km/h 90 % 0 mm 18 W/m2
15:30 5.2 °C 3.7 °C 992.1 hPa NW 3.2 km/h 9.7 km/h 90 % 0 mm 16 W/m2
15:35 5.2 °C 3.7 °C 992.1 hPa NW 1.6 km/h 6.4 km/h 90 % 0 mm 16 W/m2
15:40 5.2 °C 3.7 °C 992.1 hPa WNW 1.6 km/h 9.7 km/h 90 % 0 mm 12 W/m2
15:41 5.2 °C 3.7 °C 992.1 hPa WNW 3.2 km/h 9.7 km/h 90 % 0 mm 12 W/m2
15:48 5.1 °C 3.6 °C 992.4 hPa NW 3.2 km/h 6.4 km/h 90 % 0 mm 7 W/m2
15:54 5.1 °C 3.6 °C 992.4 hPa NW 3.2 km/h 9.7 km/h 90 % 0 mm 5 W/m2
15:59 5 °C 3.3 °C 992.4 hPa NW 3.2 km/h 8 km/h 89 % 0 mm 0 W/m2
16:00 5 °C 3.3 °C 992.8 hPa NW 3.2 km/h 8 km/h 89 % 0 mm 0 W/m2
16:05 4.9 °C 3.2 °C 992.8 hPa NW 3.2 km/h 8 km/h 89 % 0 mm 0 W/m2
16:10 4.9 °C 3.2 °C 992.8 hPa WNW 4.8 km/h 9.7 km/h 89 % 0 mm 0 W/m2
16:15 4.8 °C 3.2 °C 992.8 hPa WNW 3.2 km/h 9.7 km/h 89 % 0 mm 0 W/m2
16:16 4.8 °C 3.2 °C 992.8 hPa WNW 3.2 km/h 9.7 km/h 89 % 0 mm 0 W/m2
16:21 4.7 °C 3.1 °C 992.8 hPa WNW 4.8 km/h 8 km/h 89 % 0 mm 0 W/m2
16:32 4.6 °C 2.9 °C 993.1 hPa NW 4.8 km/h 6.4 km/h 89 % 0 mm 0 W/m2
16:37 4.4 °C 2.7 °C 993.1 hPa NW 4.8 km/h 9.7 km/h 89 % 0 mm 0 W/m2
16:42 4.4 °C 2.7 °C 993.1 hPa NW 1.6 km/h 8 km/h 89 % 0 mm 0 W/m2
16:47 4.3 °C 2.5 °C 993.5 hPa NW 4.8 km/h 8 km/h 88 % 0 mm 0 W/m2
16:50 4.2 °C 2.4 °C 993.5 hPa NW 4.8 km/h 12.9 km/h 88 % 0 mm 0 W/m2
16:56 4.2 °C 2.4 °C 993.5 hPa NW 4.8 km/h 9.7 km/h 88 % 0 mm 0 W/m2
16:59 4.1 °C 2.4 °C 993.5 hPa WNW 6.4 km/h 12.9 km/h 89 % 0 mm 0 W/m2
17:04 4.1 °C 2.4 °C 993.5 hPa WNW 8 km/h 14.5 km/h 89 % 0 mm 0 W/m2
17:05 4.2 °C 2.6 °C 993.5 hPa WNW 8 km/h 14.5 km/h 89 % 0 mm 0 W/m2
17:10 4.1 °C 2.4 °C 993.8 hPa West 3.2 km/h 8 km/h 89 % 0 mm 0 W/m2
17:12 4.1 °C 2.4 °C 993.8 hPa Calm   3.2 km/h 89 % 0 mm 0 W/m2
17:17 4 °C 2.3 °C 993.8 hPa Calm     89 % 0 mm 0 W/m2
17:20 3.9 °C 2.3 °C 994.1 hPa West 1.6 km/h 6.4 km/h 89 % 0 mm 0 W/m2
17:25 3.8 °C 2.2 °C 994.1 hPa West 1.6 km/h 3.2 km/h 89 % 0 mm 0 W/m2
17:28 3.8 °C 2.2 °C 994.1 hPa Calm   3.2 km/h 89 % 0 mm 0 W/m2
17:33 3.7 °C 2.1 °C 994.1 hPa Calm   3.2 km/h 89 % 0 mm 0 W/m2
17:37 3.6 °C 1.9 °C 994.1 hPa Calm   1.6 km/h 89 % 0 mm 0 W/m2
17:42 3.4 °C 1.8 °C 994.1 hPa West 3.2 km/h 6.4 km/h 89 % 0 mm 0 W/m2
17:43 3.4 °C 1.8 °C 994.1 hPa West 3.2 km/h 6.4 km/h 89 % 0 mm 0 W/m2
17:48 3.3 °C 1.7 °C 994.5 hPa West 3.2 km/h 6.4 km/h 89 % 0 mm 0 W/m2
17:53 3.2 °C 1.7 °C 994.5 hPa West 3.2 km/h 8 km/h 90 % 0 mm 0 W/m2
17:55 3.1 °C 1.6 °C 994.5 hPa West 3.2 km/h 6.4 km/h 90 % 0 mm 0 W/m2
18:00 3.1 °C 1.6 °C 994.8 hPa West 4.8 km/h 6.4 km/h 90 % 0 mm 0 W/m2
18:02 3.1 °C 1.6 °C 994.8 hPa West 4.8 km/h 8 km/h 90 % 0 mm 0 W/m2
18:07 3 °C 1.5 °C 994.8 hPa WNW 6.4 km/h 9.7 km/h 90 % 0 mm 0 W/m2
18:09 3 °C 1.7 °C 994.8 hPa WNW 6.4 km/h 11.3 km/h 91 % 0 mm 0 W/m2
18:14 3 °C 1.7 °C 994.8 hPa WNW 4.8 km/h 8 km/h 91 % 0 mm 0 W/m2
18:17 3 °C 1.7 °C 994.8 hPa WNW 4.8 km/h 8 km/h 91 % 0 mm 0 W/m2
18:22 2.9 °C 1.6 °C 994.8 hPa WNW 4.8 km/h 9.7 km/h 91 % 0 mm 0 W/m2
18:27 2.9 °C 1.6 °C 994.8 hPa WNW 6.4 km/h 9.7 km/h 91 % 0 mm 0 W/m2
18:28 2.9 °C 1.6 °C 994.8 hPa WNW 6.4 km/h 9.7 km/h 91 % 0 mm 0 W/m2
18:33 2.8 °C 1.5 °C 994.8 hPa WNW 6.4 km/h 9.7 km/h 91 % 0 mm 0 W/m2
18:38 2.7 °C 1.4 °C 995.1 hPa WNW 4.8 km/h 9.7 km/h 91 % 0 mm 0 W/m2
18:44 2.7 °C 1.6 °C 995.1 hPa NW 6.4 km/h 9.7 km/h 92 % 0 mm 0 W/m2
18:45 2.7 °C 1.6 °C 995.1 hPa NW 4.8 km/h 9.7 km/h 92 % 0 mm 0 W/m2
18:50 2.7 °C 1.6 °C 995.1 hPa WNW 6.4 km/h 9.7 km/h 92 % 0 mm 0 W/m2
18:55 2.7 °C 1.6 °C 995.1 hPa NW 4.8 km/h 11.3 km/h 92 % 0 mm 0 W/m2
18:56 2.7 °C 1.6 °C 995.1 hPa NW 4.8 km/h 11.3 km/h 92 % 0 mm 0 W/m2
19:01 2.7 °C 1.6 °C 995.5 hPa WNW 4.8 km/h 9.7 km/h 92 % 0 mm 0 W/m2
19:03 2.7 °C 1.6 °C 995.5 hPa WNW 4.8 km/h 8 km/h 92 % 0 mm 0 W/m2
19:06 2.7 °C 1.6 °C 995.5 hPa WNW 1.6 km/h 9.7 km/h 92 % 0 mm 0 W/m2
19:10 2.6 °C 1.4 °C 995.5 hPa Calm   1.6 km/h 92 % 0 mm 0 W/m2
19:15 2.5 °C 1.2 °C 995.8 hPa Calm   1.6 km/h 91 % 0 mm 0 W/m2
19:18 2.4 °C 1.1 °C 995.5 hPa Calm     91 % 0 mm 0 W/m2
19:21 2.3 °C 1 °C 995.8 hPa Calm     91 % 0 mm 0 W/m2
19:26 2.1 °C 0.8 °C 995.8 hPa Calm     91 % 0 mm 0 W/m2
19:29 2 °C 0.7 °C 995.8 hPa WNW 1.6 km/h 3.2 km/h 91 % 0 mm 0 W/m2
19:33 1.9 °C 0.6 °C 995.8 hPa Calm   3.2 km/h 91 % 0 mm 0 W/m2
19:34 1.9 °C 0.6 °C 995.8 hPa WNW 1.6 km/h 3.2 km/h 91 % 0 mm 0 W/m2
19:39 1.8 °C 0.6 °C 995.8 hPa WNW 3.2 km/h 6.4 km/h 92 % 0 mm 0 W/m2
19:44 1.7 °C 0.6 °C 996.2 hPa WNW 1.6 km/h 3.2 km/h 92 % 0 mm 0 W/m2
19:47 1.7 °C 0.6 °C 996.2 hPa Calm     92 % 0 mm 0 W/m2
19:52 1.6 °C 0.4 °C 996.2 hPa Calm     92 % 0 mm 0 W/m2
19:57 1.5 °C 0.3 °C 996.5 hPa Calm     92 % 0 mm 0 W/m2
20:02 1.4 °C 0.2 °C 996.5 hPa Calm     92 % 0 mm 0 W/m2
20:07 1.3 °C 0.3 °C 996.5 hPa Calm     93 % 0 mm 0 W/m2
20:08 1.3 °C 0.3 °C 996.5 hPa Calm     93 % 0 mm 0 W/m2
20:09 1.3 °C 0.3 °C 996.5 hPa Calm     93 % 0 mm 0 W/m2
20:14 1.3 °C 0.3 °C 996.8 hPa Calm     93 % 0 mm 0 W/m2
20:19 1.3 °C 0.3 °C 996.8 hPa Calm     93 % 0 mm 0 W/m2
20:20 1.3 °C 0.3 °C 996.8 hPa Calm     93 % 0 mm 0 W/m2
20:25 1.2 °C 0.2 °C 996.8 hPa Calm   3.2 km/h 93 % 0 mm 0 W/m2
20:30 1.2 °C 0.2 °C 996.8 hPa WNW 1.6 km/h 4.8 km/h 93 % 0 mm 0 W/m2
20:32 1.2 °C 0.2 °C 996.8 hPa WNW 3.2 km/h 6.4 km/h 93 % 0 mm 0 W/m2
20:37 1.3 °C 0.4 °C 997.2 hPa WNW 4.8 km/h 8 km/h 94 % 0 mm 0 W/m2
20:38 1.3 °C 0.4 °C 997.2 hPa WNW 4.8 km/h 8 km/h 94 % 0 mm 0 W/m2
20:43 1.4 °C 0.6 °C 997.2 hPa WNW 4.8 km/h 8 km/h 94 % 0 mm 0 W/m2
20:48 1.4 °C 0.6 °C 997.2 hPa WNW 6.4 km/h 8 km/h 94 % 0 mm 0 W/m2
20:50 1.4 °C 0.6 °C 997.2 hPa WNW 6.4 km/h 9.7 km/h 94 % 0 mm 0 W/m2
20:55 1.4 °C 0.6 °C 997.5 hPa WNW 6.4 km/h 9.7 km/h 94 % 0 mm 0 W/m2
21:01 1.6 °C 0.7 °C 997.5 hPa WNW 6.4 km/h 9.7 km/h 94 % 0 mm 0 W/m2
21:07 1.7 °C 1 °C 997.5 hPa NW 6.4 km/h 11.3 km/h 95 % 0 mm 0 W/m2
21:12 1.9 °C 1.2 °C 997.5 hPa NW 6.4 km/h 9.7 km/h 95 % 0 mm 0 W/m2
21:17 2 °C 1.3 °C 997.9 hPa NW 3.2 km/h 8 km/h 95 % 0 mm 0 W/m2
21:23 2 °C 1.3 °C 997.9 hPa NW 6.4 km/h 9.7 km/h 95 % 0 mm 0 W/m2
21:28 2.1 °C 1.4 °C 997.9 hPa NW 6.4 km/h 11.3 km/h 95 % 0 mm 0 W/m2
21:30 2 °C 1.3 °C 997.9 hPa NW 6.4 km/h 11.3 km/h 95 % 0 mm 0 W/m2
21:32 2.1 °C 1.4 °C 997.9 hPa WNW 8 km/h 11.3 km/h 95 % 0 mm 0 W/m2
21:37 2.1 °C 1.4 °C 997.9 hPa WNW 4.8 km/h 9.7 km/h 95 % 0 mm 0 W/m2
21:42 2.2 °C 1.5 °C 998.2 hPa NW 6.4 km/h 9.7 km/h 95 % 0 mm 0 W/m2
21:47 2.2 °C 1.5 °C 998.2 hPa NW 8 km/h 11.3 km/h 95 % 0 mm 0 W/m2
21:52 2.3 °C 1.6 °C 998.2 hPa NW 4.8 km/h 8 km/h 95 % 0 mm 0 W/m2
21:58 2.3 °C 1.6 °C 998.5 hPa WNW 4.8 km/h 9.7 km/h 95 % 0 mm 0 W/m2
21:59 2.3 °C 1.6 °C 998.5 hPa WNW 4.8 km/h 9.7 km/h 95 % 0 mm 0 W/m2
22:02 2.3 °C 1.6 °C 998.5 hPa NW 6.4 km/h 9.7 km/h 95 % 0 mm 0 W/m2
22:07 2.2 °C 1.3 °C 998.5 hPa NW 6.4 km/h 9.7 km/h 94 % 0 mm 0 W/m2
22:10 2.2 °C 1.5 °C 998.5 hPa NW 6.4 km/h 9.7 km/h 95 % 0 mm 0 W/m2
22:15 2.2 °C 1.5 °C 998.9 hPa NW 3.2 km/h 6.4 km/h 95 % 0 mm 0 W/m2
22:16 2.2 °C 1.5 °C 998.9 hPa NW 3.2 km/h 6.4 km/h 95 % 0 mm 0 W/m2
22:21 2.1 °C 1.2 °C 998.9 hPa Calm   3.2 km/h 94 % 0 mm 0 W/m2
22:26 1.8 °C 0.8 °C 998.9 hPa Calm     93 % 0 mm 0 W/m2
22:31 1.6 °C 0.6 °C 998.9 hPa Calm     93 % 0 mm 0 W/m2
22:34 1.4 °C 0.4 °C 999.2 hPa Calm     93 % 0 mm 0 W/m2
22:39 1.3 °C 0.4 °C 999.2 hPa NW 3.2 km/h 6.4 km/h 94 % 0 mm 0 W/m2
22:44 1.4 °C 0.6 °C 999.2 hPa NW 1.6 km/h 3.2 km/h 94 % 0 mm 0 W/m2
22:48 1.4 °C 0.7 °C 999.2 hPa Calm     95 % 0 mm 0 W/m2
22:53 1.5 °C 0.8 °C 999.5 hPa Calm     95 % 0 mm 0 W/m2
22:58 1.4 °C 0.6 °C 999.5 hPa Calm     94 % 0 mm 0 W/m2
22:59 1.4 °C 0.6 °C 999.5 hPa Calm     94 % 0 mm 0 W/m2
23:04 1.3 °C 0.4 °C 999.5 hPa Calm     94 % 0 mm 0 W/m2
23:07 1.3 °C 0.4 °C 999.5 hPa Calm     94 % 0 mm 0 W/m2
23:12 1.3 °C 0.6 °C 999.9 hPa Calm     95 % 0 mm 0 W/m2
23:14 1.3 °C 0.6 °C 999.9 hPa Calm   6.4 km/h 95 % 0 mm 0 W/m2
23:17 1.3 °C 0.6 °C 999.5 hPa NW 3.2 km/h 6.4 km/h 95 % 0 mm 0 W/m2
23:22 1.3 °C 0.6 °C 999.9 hPa Calm   1.6 km/h 95 % 0 mm 0 W/m2
23:24 1.4 °C 0.7 °C 999.9 hPa NW 1.6 km/h 3.2 km/h 95 % 0 mm 0 W/m2
23:29 1.4 °C 0.7 °C 999.9 hPa NW 1.6 km/h 8 km/h 95 % 0 mm 0 W/m2
23:30 1.4 °C 0.7 °C 999.9 hPa NW 1.6 km/h 8 km/h 95 % 0 mm 0 W/m2
23:35 1.6 °C 0.9 °C 1000.2 hPa NW 1.6 km/h 6.4 km/h 95 % 0 mm 0 W/m2
23:41 1.7 °C 1 °C 1000.2 hPa Calm     95 % 0 mm 0 W/m2
23:45 1.7 °C 1 °C 1000.2 hPa Calm   3.2 km/h 95 % 0 mm 0 W/m2
23:50 1.7 °C 1 °C 1000.2 hPa NW 3.2 km/h 8 km/h 95 % 0 mm 0 W/m2
23:51 1.7 °C 1 °C 1000.2 hPa NW 4.8 km/h 8 km/h 95 % 0 mm 0 W/m2
23:56 1.8 °C 1.1 °C 1000.2 hPa NW 3.2 km/h 9.7 km/h 95 % 0 mm 0 W/m2
23:59 1.9 °C 1.3 °C 1000.2 hPa NW 6.4 km/h 11.3 km/h 96 % 0 mm 0 W/m2
Delerius-Weather
Compliments of Weather Underground - 2.75 mb

Data updates at regular intervals.